Time;durP1;ratioP1;P1;durP2;ratioP2;P2;SDS_P1;SDS_P2;PMS_P1;PMS_P2;Temp;Humidity;BMP_temperature;BMP_pressure;BME280_temperature;BME280_humidity;BME280_pressure;Samples;Min_cycle;Max_cycle;Signal;HPM_P1;HPM_P2
2020/12/20 00:02:17;;;;;;;77.63;45.95;;;179.40;2176.00;;;;;;4999119;28;20030;-78
2020/12/20 00:04:43;;;;;;;78.55;46.55;;;179.30;2176.00;;;;;;4999170;28;20065;-78
2020/12/20 00:07:09;;;;;;;72.38;45.40;;;179.40;2176.00;;;;;;4998784;28;20027;-77
2020/12/20 00:09:34;;;;;;;83.93;45.33;;;179.30;2176.00;;;;;;5014295;28;20022;-78
2020/12/20 00:12:00;;;;;;;75.60;43.72;;;179.40;2176.00;;;;;;4999142;28;20102;-78
2020/12/20 00:14:29;;;;;;;74.15;43.95;;;179.40;2176.00;;;;;;4998833;28;20022;-77
2020/12/20 00:17:14;;;;;;;78.90;45.05;;;179.40;2176.00;;;;;;4998879;28;20383;-77
2020/12/20 00:19:39;;;;;;;75.35;43.13;;;179.30;2176.00;;;;;;4998935;28;20113;-78
2020/12/20 00:22:10;;;;;;;65.28;38.88;;;179.30;2176.00;;;;;;4997669;28;20101;-77
2020/12/20 00:24:36;;;;;;;;;;;179.30;2176.00;;;;;;4998867;28;20488;-78
2020/12/20 00:27:03;;;;;;;67.35;40.17;;;179.40;2176.00;;;;;;4998561;28;19913;-78
2020/12/20 00:29:31;;;;;;;71.78;42.00;;;179.30;2176.00;;;;;;5030331;28;20045;-78
2020/12/20 00:31:57;;;;;;;69.65;40.58;;;179.20;2176.00;;;;;;4998477;28;20085;-78
2020/12/20 00:34:23;;;;;;;68.18;40.13;;;179.30;2176.00;;;;;;4998615;28;20027;-78
2020/12/20 00:36:49;;;;;;;73.50;42.28;;;179.30;2176.00;;;;;;4997996;28;20033;-78
2020/12/20 00:39:17;;;;;;;66.00;39.83;;;179.30;2176.00;;;;;;4998716;28;20026;-78
2020/12/20 00:41:47;;;;;;;71.10;42.63;;;179.30;2176.00;;;;;;4998740;28;20022;-77
2020/12/20 00:44:13;;;;;;;69.70;39.10;;;179.30;2176.00;;;;;;4998067;28;20035;-77
2020/12/20 00:46:39;;;;;;;65.57;40.10;;;179.30;2176.00;;;;;;4998342;28;20414;-77
2020/12/20 00:49:04;;;;;;;63.70;37.97;;;179.30;2176.00;;;;;;4998213;28;20325;-78
2020/12/20 00:51:33;;;;;;;66.05;40.15;;;179.40;2176.00;;;;;;5008135;28;20113;-77
2020/12/20 00:54:00;;;;;;;63.05;38.78;;;179.30;2176.00;;;;;;5017461;28;20056;-76
2020/12/20 00:56:26;;;;;;;69.72;42.30;;;179.40;2176.00;;;;;;5016633;28;20030;-77
2020/12/20 00:58:52;;;;;;;75.40;41.42;;;179.40;2176.00;;;;;;5017673;28;20030;-76
2020/12/20 01:01:17;;;;;;;69.05;42.05;;;179.40;2176.00;;;;;;5016510;28;20105;-76
2020/12/20 01:03:44;;;;;;;75.22;42.28;;;179.40;2176.00;;;;;;5017671;28;20030;-76
2020/12/20 01:06:23;;;;;;;71.05;41.15;;;179.30;2176.00;;;;;;5016432;28;20029;-76
2020/12/20 01:08:49;;;;;;;71.95;41.15;;;179.30;2176.00;;;;;;5017810;28;20037;-76
2020/12/20 01:11:16;;;;;;;78.97;41.70;;;179.30;2176.00;;;;;;5017597;28;20351;-78
2020/12/20 01:13:43;;;;;;;80.78;43.97;;;179.30;2176.00;;;;;;5017541;28;20037;-78
2020/12/20 01:16:20;;;;;;;73.22;42.42;;;179.30;2176.00;;;;;;5017447;28;20049;-77
2020/12/20 01:18:46;;;;;;;69.70;39.65;;;179.30;2176.00;;;;;;5017149;28;20021;-77
2020/12/20 01:21:16;;;;;;;61.58;35.80;;;179.30;2176.00;;;;;;5017497;28;20026;-77
2020/12/20 01:23:42;;;;;;;72.07;39.25;;;179.40;2176.00;;;;;;5017041;28;20053;-77
2020/12/20 01:26:07;;;;;;;66.95;40.15;;;179.30;2176.00;;;;;;5017207;28;20060;-78
2020/12/20 01:28:33;;;;;;;65.95;40.22;;;179.30;2176.00;;;;;;5017193;28;20037;-77
2020/12/20 01:31:00;;;;;;;66.10;38.28;;;179.30;2176.00;;;;;;5015982;28;20033;-77
2020/12/20 01:33:26;;;;;;;61.97;38.30;;;179.30;2176.00;;;;;;5016775;28;20346;-77
2020/12/20 01:35:52;;;;;;;58.45;36.35;;;179.30;2176.00;;;;;;5016975;28;20117;-78
2020/12/20 01:38:18;;;;;;;66.30;37.13;;;179.30;2176.00;;;;;;5016202;28;20457;-77
2020/12/20 01:40:54;;;;;;;61.55;35.58;;;179.30;2176.00;;;;;;5017234;28;20033;-77
2020/12/20 01:43:20;;;;;;;63.40;40.13;;;179.40;2176.00;;;;;;5016990;28;20518;-77
2020/12/20 01:45:46;;;;;;;63.30;37.00;;;179.40;2176.00;;;;;;5032344;28;20030;-77
2020/12/20 01:48:13;;;;;;;69.40;39.85;;;179.40;2176.00;;;;;;5015978;28;20057;-77
2020/12/20 01:50:41;;;;;;;63.33;36.35;;;179.40;2176.00;;;;;;5016790;28;20105;-77
2020/12/20 01:53:07;;;;;;;65.85;39.83;;;179.30;2176.00;;;;;;5015473;28;20046;-77
2020/12/20 01:55:33;;;;;;;65.82;39.35;;;179.30;2176.00;;;;;;5016858;28;20354;-77
2020/12/20 01:57:59;;;;;;;69.22;40.50;;;179.30;2176.00;;;;;;5016480;28;20030;-76
2020/12/20 02:00:25;;;;;;;72.03;42.13;;;179.30;2176.00;;;;;;5016742;28;20419;-77
2020/12/20 02:02:51;;;;;;;73.28;41.90;;;179.40;2176.00;;;;;;5016648;28;20032;-77
2020/12/20 02:05:17;;;;;;;62.85;37.22;;;179.30;2176.00;;;;;;5016801;28;20115;-77
2020/12/20 02:08:01;;;;;;;73.65;40.50;;;179.40;2176.00;;;;;;5015924;28;20085;-78
2020/12/20 02:10:27;;;;;;;70.18;42.65;;;179.40;2176.00;;;;;;5016736;28;20438;-77
2020/12/20 02:12:52;;;;;;;64.40;39.63;;;179.40;2176.00;;;;;;5016614;28;20101;-78
2020/12/20 02:15:18;;;;;;;72.53;40.97;;;179.40;2176.00;;;;;;5016618;28;20018;-77
2020/12/20 02:17:44;;;;;;;66.53;39.28;;;179.40;2176.00;;;;;;5016565;28;20118;-78
2020/12/20 02:20:09;;;;;;;66.85;39.50;;;179.30;2176.00;;;;;;5016864;28;20334;-77
2020/12/20 02:22:35;;;;;;;67.43;40.45;;;179.30;2176.00;;;;;;5016399;28;20045;-78
2020/12/20 02:25:01;;;;;;;82.45;44.15;;;179.30;2176.00;;;;;;5016462;28;20435;-77
2020/12/20 02:27:27;;;;;;;73.80;43.80;;;179.40;2176.00;;;;;;5016520;28;20026;-78
2020/12/20 02:29:52;;;;;;;80.30;45.95;;;179.40;2176.00;;;;;;5016417;28;20402;-78
2020/12/20 02:32:18;;;;;;;83.10;48.45;;;179.40;2176.00;;;;;;5016461;28;20037;-76
2020/12/20 02:34:44;;;;;;;78.32;42.83;;;179.40;2176.00;;;;;;5016341;28;20022;-76
2020/12/20 02:37:10;;;;;;;84.25;46.42;;;179.40;2176.00;;;;;;5016572;28;20025;-78
2020/12/20 02:39:40;;;;;;;73.53;41.58;;;179.40;2176.00;;;;;;5016425;28;20438;-78
2020/12/20 02:42:06;;;;;;;69.60;39.85;;;179.40;2176.00;;;;;;5016288;28;20045;-79
2020/12/20 02:44:32;;;;;;;76.43;44.88;;;179.40;2176.00;;;;;;5016674;28;20431;-77
2020/12/20 02:46:58;;;;;;;73.22;40.15;;;179.30;2176.00;;;;;;5020028;28;20105;-77
2020/12/20 02:49:23;;;;;;;71.68;38.85;;;179.30;2176.00;;;;;;5019266;28;20038;-77
2020/12/20 02:51:49;;;;;;;83.25;44.20;;;179.30;2176.00;;;;;;5018863;28;20124;-78
2020/12/20 02:54:15;;;;;;;84.85;46.03;;;179.30;2176.00;;;;;;5019855;28;20037;-77
2020/12/20 02:56:45;;;;;;;79.65;42.30;;;179.30;2176.00;;;;;;5020007;28;20034;-77
2020/12/20 02:59:12;;;;;;;69.68;39.85;;;179.30;2201.60;;;;;;5020101;28;20021;-76
2020/12/20 03:01:38;;;;;;;70.80;40.97;;;179.30;2201.60;;;;;;5019724;28;20068;-77
2020/12/20 03:04:04;;;;;;;75.65;41.53;;;179.30;2201.60;;;;;;5019798;28;20029;-77
2020/12/20 03:06:30;;;;;;;75.25;39.45;;;179.30;2201.60;;;;;;5020074;28;20026;-77
2020/12/20 03:08:56;;;;;;;67.82;38.97;;;179.30;2201.60;;;;;;5019632;28;20041;-77
2020/12/20 03:11:21;;;;;;;66.90;37.65;;;179.40;2176.00;;;;;;5019552;28;20034;-77
2020/12/20 03:13:47;;;;;;;78.45;40.45;;;179.40;2176.00;;;;;;5019537;28;20022;-76
2020/12/20 03:16:13;;;;;;;71.68;40.50;;;179.30;2201.60;;;;;;5019527;28;20026;-77
2020/12/20 03:18:38;;;;;;;71.95;40.30;;;179.40;2176.00;;;;;;5019675;28;20026;-77
2020/12/20 03:21:04;;;;;;;66.63;36.20;;;179.40;2176.00;;;;;;5019360;28;20030;-78
2020/12/20 03:23:30;;;;;;;70.07;38.83;;;179.40;2201.60;;;;;;5019350;28;20037;-76
2020/12/20 03:25:55;;;;;;;66.15;38.83;;;179.40;2176.00;;;;;;5019264;28;20346;-76
2020/12/20 03:28:21;;;;;;;63.40;37.83;;;179.40;2201.60;;;;;;5019497;28;20056;-77
2020/12/20 03:30:47;;;;;;;64.88;36.80;;;179.40;2201.60;;;;;;5019214;28;20327;-76
2020/12/20 03:33:12;;;;;;;66.93;38.03;;;179.40;2201.60;;;;;;5034714;28;20034;-77
2020/12/20 03:35:38;;;;;;;66.00;36.33;;;179.40;2201.60;;;;;;5019192;28;20109;-78
2020/12/20 03:38:04;;;;;;;74.53;38.55;;;179.40;2201.60;;;;;;5018798;28;20029;-77
2020/12/20 03:40:30;;;;;;;67.03;39.53;;;179.50;2201.60;;;;;;5019271;28;20410;-76
2020/12/20 03:42:55;;;;;;;71.53;39.55;;;179.40;2201.60;;;;;;5034270;28;20033;-77
2020/12/20 03:45:21;;;;;;;70.30;39.28;;;179.40;2201.60;;;;;;5019415;28;20037;-79
2020/12/20 03:47:48;;;;;;;76.95;40.67;;;179.30;2201.60;;;;;;5019247;28;20288;-77
2020/12/20 03:50:14;;;;;;;74.18;38.05;;;179.30;2201.60;;;;;;5018988;28;20371;-76
2020/12/20 03:52:40;;;;;;;76.25;40.95;;;179.40;2201.60;;;;;;5018644;28;20038;-77
2020/12/20 03:55:05;;;;;;;68.53;38.58;;;179.30;2201.60;;;;;;5018760;28;20400;-77
2020/12/20 03:57:33;;;;;;;75.53;40.13;;;179.40;2201.60;;;;;;5018682;28;20029;-77
2020/12/20 03:59:58;;;;;;;78.38;42.17;;;179.30;2201.60;;;;;;5018907;28;20026;-76
2020/12/20 04:02:25;;;;;;;72.57;40.25;;;179.30;2201.60;;;;;;5018980;28;20104;-76
2020/12/20 04:04:51;;;;;;;70.90;39.30;;;179.30;2201.60;;;;;;5018622;28;20033;-78
2020/12/20 04:07:16;;;;;;;69.80;40.53;;;179.40;2201.60;;;;;;5018787;28;20080;-78
2020/12/20 04:09:43;;;;;;;71.60;39.67;;;179.30;2227.20;;;;;;5017613;28;20425;-78
2020/12/20 04:12:09;;;;;;;75.65;38.78;;;179.40;2201.60;;;;;;5018533;28;20361;-77
2020/12/20 04:14:35;;;;;;;68.53;38.20;;;179.30;2227.20;;;;;;5018349;28;20026;-77
2020/12/20 04:17:00;;;;;;;75.00;41.35;;;179.40;2227.20;;;;;;5018444;28;20426;-78
2020/12/20 04:19:26;;;;;;;81.53;43.85;;;179.40;2201.60;;;;;;5018264;28;20030;-77
2020/12/20 04:21:52;;;;;;;80.03;44.05;;;179.40;2201.60;;;;;;5018099;28;20026;-78
2020/12/20 04:24:18;;;;;;;78.55;43.20;;;179.40;2227.20;;;;;;5018336;28;20044;-78
2020/12/20 04:26:43;;;;;;;74.68;40.33;;;179.40;2227.20;;;;;;5017164;28;20434;-77
2020/12/20 04:29:10;;;;;;;80.35;44.35;;;179.30;2227.20;;;;;;5018441;28;20293;-78
2020/12/20 04:31:36;;;;;;;78.50;42.97;;;179.30;2227.20;;;;;;5018032;28;20026;-78
2020/12/20 04:34:02;;;;;;;82.03;44.13;;;179.30;2227.20;;;;;;5018004;28;20024;-78
2020/12/20 04:36:28;;;;;;;81.93;45.72;;;179.30;2227.20;;;;;;5018297;28;20021;-79
2020/12/20 04:38:55;;;;;;;72.35;40.70;;;179.30;2227.20;;;;;;5017879;28;20422;-78
2020/12/20 04:41:22;;;;;;;74.72;42.53;;;179.30;2227.20;;;;;;5017747;28;20084;-78
2020/12/20 04:43:48;;;;;;;79.78;42.92;;;179.40;2227.20;;;;;;5016985;28;20030;-77
2020/12/20 04:46:17;;;;;;;84.28;44.38;;;179.40;2227.20;;;;;;5018067;28;20319;-78
2020/12/20 04:48:44;;;;;;;77.15;43.22;;;179.40;2227.20;;;;;;5017959;28;20088;-77
2020/12/20 04:51:10;;;;;;;77.75;43.63;;;179.30;2227.20;;;;;;5017957;28;20025;-78
2020/12/20 04:53:37;;;;;;;74.57;40.40;;;179.30;2227.20;;;;;;5027740;28;20044;-77
2020/12/20 04:56:04;;;;;;;79.40;43.75;;;179.40;2227.20;;;;;;5037511;28;20048;-78
2020/12/20 04:58:30;;;;;;;78.97;44.75;;;179.30;2227.20;;;;;;5036388;28;20022;-79
2020/12/20 05:00:57;;;;;;;80.70;44.88;;;179.30;2227.20;;;;;;5037303;28;20026;-77
2020/12/20 05:03:23;;;;;;;81.28;46.08;;;179.30;2227.20;;;;;;5037136;28;20038;-79
2020/12/20 05:05:49;;;;;;;87.22;47.72;;;179.40;2227.20;;;;;;5037608;28;20032;-77
2020/12/20 05:08:17;;;;;;;84.72;45.22;;;179.30;2227.20;;;;;;5020432;28;20021;-78
2020/12/20 05:10:43;;;;;;;78.78;44.28;;;179.30;2252.80;;;;;;5038439;28;20395;-78
2020/12/20 05:13:09;;;;;;;75.90;44.40;;;179.30;2252.80;;;;;;5038407;28;20036;-77
2020/12/20 05:15:35;;;;;;;87.60;46.60;;;179.30;2227.20;;;;;;5037189;28;20426;-78
2020/12/20 05:18:05;;;;;;;81.22;47.33;;;179.30;2252.80;;;;;;5035365;28;20034;-77
2020/12/20 05:20:35;;;;;;;;;;;179.30;2227.20;;;;;;5037643;28;20036;-76
2020/12/20 05:23:01;;;;;;;88.88;48.35;;;179.30;2227.20;;;;;;5018833;28;19908;-79
2020/12/20 05:25:29;;;;;;;94.28;48.70;;;179.20;2252.80;;;;;;5036828;28;20104;-78
2020/12/20 05:28:15;;;;;;;92.75;49.55;;;179.30;2252.80;;;;;;5036868;28;20029;-77
2020/12/20 05:30:43;;;;;;;89.07;48.78;;;179.30;2252.80;;;;;;5036845;28;20072;-77
2020/12/20 05:33:10;;;;;;;84.00;48.35;;;179.30;2227.20;;;;;;5036577;28;20025;-77
2020/12/20 05:35:36;;;;;;;85.88;48.33;;;179.30;2252.80;;;;;;5037011;28;20029;-78
2020/12/20 05:38:06;;;;;;;88.97;48.67;;;179.30;2252.80;;;;;;5036979;28;20025;-77
2020/12/20 05:40:34;;;;;;;87.13;49.13;;;179.30;2252.80;;;;;;5019224;28;20022;-76
2020/12/20 05:43:05;;;;;;;90.35;50.85;;;179.30;2252.80;;;;;;5019219;28;20049;-77
2020/12/20 05:45:34;;;;;;;84.25;48.90;;;179.30;2252.80;;;;;;5036559;28;20030;-76
2020/12/20 05:48:13;;;;;;;92.90;50.83;;;179.40;2227.20;;;;;;5036513;28;20084;-77
2020/12/20 05:50:48;;;;;;;94.38;52.78;;;179.30;2252.80;;;;;;5018906;28;20037;-77
2020/12/20 05:53:13;;;;;;;102.05;55.17;;;179.40;2252.80;;;;;;5018455;28;20342;-76
2020/12/20 05:55:40;;;;;;;111.47;60.47;;;179.40;2227.20;;;;;;5036887;28;20026;-78
2020/12/20 05:58:13;;;;;;;101.60;53.85;;;179.30;2252.80;;;;;;5036433;28;20017;-77
2020/12/20 06:00:44;;;;;;;95.63;50.45;;;179.40;2252.80;;;;;;5036197;28;20053;-77
2020/12/20 06:03:11;;;;;;;87.07;48.63;;;179.30;2252.80;;;;;;5036450;28;20048;-77
2020/12/20 06:05:44;;;;;;;94.10;50.13;;;179.30;2252.80;;;;;;5036483;28;20038;-77
2020/12/20 06:08:13;;;;;;;88.18;48.00;;;179.30;2252.80;;;;;;5036416;28;20083;-77
2020/12/20 06:10:51;;;;;;;92.15;50.20;;;179.30;2252.80;;;;;;5036246;28;20037;-76
2020/12/20 06:13:19;;;;;;;90.75;52.25;;;179.30;2252.80;;;;;;5036370;28;20068;-77
2020/12/20 06:15:50;;;;;;;90.07;51.20;;;179.40;2252.80;;;;;;5036432;28;20064;-77
2020/12/20 06:18:31;;;;;;;99.70;52.22;;;179.30;2252.80;;;;;;5036420;28;20017;-77
2020/12/20 06:21:03;;;;;;;93.50;53.38;;;179.30;2252.80;;;;;;5039024;28;20041;-77
2020/12/20 06:23:34;;;;;;;88.40;50.00;;;179.30;2252.80;;;;;;5038981;28;20295;-77
2020/12/20 06:26:02;;;;;;;80.18;48.95;;;179.30;2252.80;;;;;;5040395;28;20035;-77
2020/12/20 06:28:30;;;;;;;89.45;49.75;;;179.30;2252.80;;;;;;5040142;28;20021;-77
2020/12/20 06:30:57;;;;;;;85.65;49.92;;;179.30;2252.80;;;;;;5040004;28;20027;-78
2020/12/20 06:33:34;;;;;;;90.03;50.90;;;179.40;2252.80;;;;;;5040203;28;20028;-78
2020/12/20 06:36:03;;;;;;;107.50;60.80;;;179.40;2252.80;;;;;;5039887;28;20022;-76
2020/12/20 06:38:29;;;;;;;102.07;57.42;;;179.40;2252.80;;;;;;5022356;28;20017;-77
2020/12/20 06:40:54;;;;;;;96.35;55.17;;;179.30;2252.80;;;;;;5040107;28;20069;-77
2020/12/20 06:43:31;;;;;;;97.00;54.47;;;179.40;2252.80;;;;;;5038877;28;20383;-77
2020/12/20 06:45:58;;;;;;;96.15;55.53;;;179.40;2252.80;;;;;;5039806;28;20414;-77
2020/12/20 06:48:35;;;;;;;103.43;61.90;;;179.40;2252.80;;;;;;5039593;28;20076;-78
2020/12/20 06:51:04;;;;;;;104.90;59.88;;;179.30;2252.80;;;;;;5039730;28;20072;-78
2020/12/20 06:53:49;;;;;;;102.25;59.22;;;179.30;2252.80;;;;;;5039429;28;20045;-77
2020/12/20 06:56:23;;;;;;;106.38;58.70;;;179.40;2252.80;;;;;;5022081;28;20025;-77
2020/12/20 06:58:50;;;;;;;109.45;61.15;;;179.40;2252.80;;;;;;5039481;28;20021;-77
2020/12/20 07:01:36;;;;;;;104.72;57.40;;;179.40;2252.80;;;;;;5022045;28;20075;-78
2020/12/20 07:04:03;;;;;;;104.30;59.80;;;179.50;2252.80;;;;;;5039008;28;20075;-78
2020/12/20 07:06:29;;;;;;;95.78;55.03;;;179.40;2252.80;;;;;;5039579;28;20025;-77
2020/12/20 07:09:12;;;;;;;96.82;55.80;;;179.40;2252.80;;;;;;5039435;28;20485;-78
2020/12/20 07:11:49;;;;;;;108.45;60.42;;;179.40;2252.80;;;;;;5039099;28;20030;-78
2020/12/20 07:14:17;;;;;;;128.43;67.25;;;179.50;2252.80;;;;;;5039215;28;20033;-77
2020/12/20 07:16:43;;;;;;;183.70;87.15;;;179.50;2252.80;;;;;;5039397;28;20472;-77
2020/12/20 07:19:11;;;;;;;199.80;92.72;;;179.50;2252.80;;;;;;5039188;28;20030;-78
2020/12/20 07:21:52;;;;;;;130.55;69.25;;;179.50;2252.80;;;;;;5038153;28;20468;-77
2020/12/20 07:24:24;;;;;;;117.18;60.13;;;179.60;2252.80;;;;;;5038942;28;20116;-77
2020/12/20 07:26:51;;;;;;;119.50;65.78;;;179.60;2252.80;;;;;;5039290;28;20034;-78
2020/12/20 07:29:18;;;;;;;101.93;55.65;;;179.50;2252.80;;;;;;5021377;28;20041;-77
2020/12/20 07:31:45;;;;;;;101.95;57.28;;;179.60;2252.80;;;;;;5020661;28;20041;-77
2020/12/20 07:34:11;;;;;;;98.30;54.35;;;179.50;2252.80;;;;;;5038980;28;20441;-77
2020/12/20 07:36:38;;;;;;;84.40;48.50;;;179.60;2252.80;;;;;;5038087;28;20025;-77
2020/12/20 07:39:05;;;;;;;85.35;45.42;;;179.60;2252.80;;;;;;5039479;28;20026;-76
2020/12/20 07:41:32;;;;;;;96.00;53.50;;;179.70;2252.80;;;;;;5038851;28;20300;-77
2020/12/20 07:44:02;;;;;;;89.85;47.47;;;179.60;2252.80;;;;;;5038677;28;20446;-78
2020/12/20 07:46:28;;;;;;;90.00;48.00;;;179.60;2252.80;;;;;;5038562;28;20068;-76
2020/12/20 07:48:53;;;;;;;91.22;48.85;;;179.60;2252.80;;;;;;5037612;28;20100;-76
2020/12/20 07:51:26;;;;;;;90.45;45.35;;;179.60;2252.80;;;;;;5038398;28;20426;-77
2020/12/20 07:53:53;;;;;;;89.80;46.92;;;179.60;2252.80;;;;;;5038204;28;20481;-76
2020/12/20 07:56:22;;;;;;;86.85;45.53;;;179.70;2252.80;;;;;;5038576;28;20025;-77
2020/12/20 07:58:49;;;;;;;95.15;47.08;;;179.70;2252.80;;;;;;5038363;28;20017;-78
2020/12/20 08:01:14;;;;;;;97.82;49.58;;;179.70;2252.80;;;;;;5038577;28;20025;-76
2020/12/20 08:03:40;;;;;;;100.40;47.85;;;179.60;2252.80;;;;;;5038447;28;20027;-77
2020/12/20 08:06:09;;;;;;;86.22;46.38;;;179.60;2252.80;;;;;;5037618;28;20075;-77
2020/12/20 08:08:36;;;;;;;92.18;46.22;;;179.70;2252.80;;;;;;5020338;28;20033;-77
2020/12/20 08:11:18;;;;;;;87.63;46.10;;;179.80;2252.80;;;;;;5038297;28;20116;-77
2020/12/20 08:14:00;;;;;;;96.30;51.17;;;179.80;2252.80;;;;;;5025188;28;20026;-77
2020/12/20 08:16:28;;;;;;;104.63;53.92;;;179.80;2252.80;;;;;;5018387;28;20074;-77
2020/12/20 08:19:00;;;;;;;104.70;53.15;;;179.80;2252.80;;;;;;5018062;28;20134;-77
2020/12/20 08:21:45;;;;;;;93.03;50.25;;;179.80;2252.80;;;;;;5018146;28;20033;-78
2020/12/20 08:24:12;;;;;;;92.30;50.08;;;179.70;2252.80;;;;;;5017889;28;20073;-77
2020/12/20 08:26:39;;;;;;;79.55;42.42;;;179.80;2252.80;;;;;;5018081;28;20037;-78
2020/12/20 08:29:06;;;;;;;86.80;44.15;;;179.80;2252.80;;;;;;5017405;28;20430;-77
2020/12/20 08:31:32;;;;;;;85.13;46.13;;;179.90;2252.80;;;;;;5017761;28;20030;-77
2020/12/20 08:33:59;;;;;;;86.22;46.95;;;179.90;2252.80;;;;;;5017956;28;20029;-77
2020/12/20 08:36:26;;;;;;;79.47;45.22;;;179.90;2227.20;;;;;;5017947;28;20022;-78
2020/12/20 08:38:53;;;;;;;82.50;47.17;;;179.90;2227.20;;;;;;5017914;28;20033;-76
2020/12/20 08:41:20;;;;;;;78.18;46.13;;;180.00;2227.20;;;;;;5017753;28;20026;-77
2020/12/20 08:43:46;;;;;;;74.45;44.05;;;180.00;2227.20;;;;;;5016900;28;20057;-76
2020/12/20 08:46:29;;;;;;;96.18;54.40;;;179.90;2227.20;;;;;;5017481;28;20026;-75
2020/12/20 08:49:27;;;;;;;86.97;46.70;;;180.00;2227.20;;;;;;5017172;28;20094;-77
2020/12/20 08:51:53;;;;;;;78.00;39.67;;;180.00;2227.20;;;;;;5014879;28;20029;-76
2020/12/20 08:54:26;;;;;;;86.93;46.00;;;180.00;2227.20;;;;;;5017304;28;20431;-77
2020/12/20 08:56:56;;;;;;;81.00;43.53;;;180.00;2227.20;;;;;;5017308;28;20427;-77
2020/12/20 08:59:42;;;;;;;88.80;46.33;;;180.00;2227.20;;;;;;5017436;28;20101;-77
2020/12/20 09:02:16;;;;;;;72.18;40.35;;;180.00;2227.20;;;;;;5017070;28;20080;-76
2020/12/20 09:04:54;;;;;;;86.13;40.70;;;180.00;2227.20;;;;;;5017225;28;20030;-77
2020/12/20 09:07:34;;;;;;;79.43;42.88;;;180.00;2227.20;;;;;;5017152;28;20026;-77
2020/12/20 09:10:07;;;;;;;86.33;45.60;;;180.00;2227.20;;;;;;5017236;28;20029;-77
2020/12/20 09:12:33;;;;;;;76.68;41.00;;;180.00;2227.20;;;;;;5017298;28;20034;-77
2020/12/20 09:15:10;;;;;;;83.07;41.55;;;180.10;2227.20;;;;;;4999727;28;20168;-77
2020/12/20 09:17:47;;;;;;;72.53;42.05;;;180.00;2227.20;;;;;;5016869;28;20468;-77
2020/12/20 09:20:18;;;;;;;90.47;43.58;;;180.10;2227.20;;;;;;5016875;28;20026;-77
2020/12/20 09:22:52;;;;;;;78.03;42.88;;;180.10;2201.60;;;;;;4998799;28;20042;-77
2020/12/20 09:25:38;;;;;;;74.00;41.22;;;204.80;2201.60;;;;;;5016995;28;20038;-76
2020/12/20 09:28:09;;;;;;;67.47;37.63;;;204.80;2201.60;;;;;;5016733;28;20404;-77
2020/12/20 09:30:42;;;;;;;62.80;35.45;;;180.10;2201.60;;;;;;5016697;28;20033;-76
2020/12/20 09:33:38;;;;;;;60.65;37.33;;;204.80;2201.60;;;;;;4999334;28;20057;-77
2020/12/20 09:36:21;;;;;;;61.70;36.88;;;204.80;2201.60;;;;;;5016808;28;20435;-75
2020/12/20 09:38:52;;;;;;;55.05;33.05;;;204.90;2176.00;;;;;;5016524;28;20121;-77
2020/12/20 09:41:21;;;;;;;54.63;31.70;;;204.90;2176.00;;;;;;4999449;28;20030;-76
2020/12/20 09:43:49;;;;;;;55.42;32.70;;;204.90;2176.00;;;;;;5016861;28;20030;-77
2020/12/20 09:46:38;;;;;;;54.22;32.83;;;204.90;2176.00;;;;;;5016845;28;20030;-77
2020/12/20 09:49:05;;;;;;;56.00;31.70;;;204.90;2176.00;;;;;;4999003;28;20423;-77
2020/12/20 09:51:33;;;;;;;60.80;34.53;;;204.90;2176.00;;;;;;5016454;28;20033;-76
2020/12/20 09:53:59;;;;;;;55.35;33.38;;;204.90;2176.00;;;;;;4998713;28;20058;-76
2020/12/20 09:56:25;;;;;;;59.35;32.28;;;204.90;2176.00;;;;;;5016412;28;20030;-76
2020/12/20 09:58:50;;;;;;;65.10;36.17;;;204.90;2176.00;;;;;;5016140;28;20033;-77
2020/12/20 10:01:22;;;;;;;60.88;35.75;;;204.90;2201.60;;;;;;5016623;28;20320;-75
2020/12/20 10:03:48;;;;;;;76.47;42.05;;;204.90;2176.00;;;;;;5016327;28;20092;-76
2020/12/20 10:06:15;;;;;;;71.25;42.10;;;204.90;2176.00;;;;;;5016094;28;20026;-76
2020/12/20 10:08:41;;;;;;;70.00;39.65;;;204.90;2176.00;;;;;;5015580;28;20145;-77
2020/12/20 10:11:08;;;;;;;74.97;45.60;;;205.00;2176.00;;;;;;5016346;28;20117;-77
2020/12/20 10:13:34;;;;;;;61.75;35.90;;;205.00;2150.40;;;;;;5016273;28;20419;-77
2020/12/20 10:15:59;;;;;;;60.28;35.63;;;205.00;2150.40;;;;;;5016948;28;20049;-77
2020/12/20 10:18:25;;;;;;;59.80;31.80;;;205.10;2150.40;;;;;;5016742;28;20030;-78
2020/12/20 10:20:51;;;;;;;47.63;29.50;;;205.00;2150.40;;;;;;5015374;28;20022;-78
2020/12/20 10:23:16;;;;;;;62.10;36.47;;;205.00;2124.80;;;;;;5016105;28;20054;-79
2020/12/20 10:25:42;;;;;;;70.40;38.53;;;205.00;2150.40;;;;;;4998887;28;20412;-78
2020/12/20 10:28:08;;;;;;;69.25;41.33;;;205.00;2150.40;;;;;;5016066;28;20109;-77
2020/12/20 10:30:35;;;;;;;63.03;37.67;;;205.10;2124.80;;;;;;5015700;28;20072;-78
2020/12/20 10:33:01;;;;;;;73.07;52.90;;;205.20;2124.80;;;;;;5016144;28;20026;-78
2020/12/20 10:35:27;;;;;;;57.55;34.20;;;205.10;2099.20;;;;;;5015949;28;20022;-78
2020/12/20 10:37:55;;;;;;;53.50;33.40;;;205.10;2124.80;;;;;;5015101;28;20400;-77
2020/12/20 10:40:23;;;;;;;53.13;32.92;;;205.10;2124.80;;;;;;5016070;28;20077;-77
2020/12/20 10:42:49;;;;;;;54.25;32.40;;;205.10;2099.20;;;;;;4998594;28;20404;-76
2020/12/20 10:45:15;;;;;;;56.88;34.00;;;205.10;2124.80;;;;;;5016151;28;20034;-78
2020/12/20 10:47:41;;;;;;;47.35;30.55;;;205.10;2124.80;;;;;;5016212;28;20085;-78
2020/12/20 10:50:07;;;;;;;45.95;28.50;;;205.00;2124.80;;;;;;5016349;28;20166;-77
2020/12/20 10:52:33;;;;;;;51.38;31.23;;;205.10;2099.20;;;;;;5015340;28;20030;-77
2020/12/20 10:55:00;;;;;;;45.58;29.58;;;205.10;2073.60;;;;;;4998143;28;20052;-78
2020/12/20 10:57:26;;;;;;;55.15;32.80;;;205.10;2048.00;;;;;;5022204;28;20033;-78
2020/12/20 10:59:52;;;;;;;55.95;33.63;;;205.10;2048.00;;;;;;5035736;28;20025;-77
2020/12/20 11:02:19;;;;;;;54.33;33.92;;;205.10;2073.60;;;;;;5035708;28;20109;-77
2020/12/20 11:04:45;;;;;;;56.33;34.67;;;205.10;2073.60;;;;;;5035618;28;20045;-78
2020/12/20 11:07:10;;;;;;;51.63;32.60;;;205.10;2048.00;;;;;;5038478;28;20048;-77
2020/12/20 11:09:36;;;;;;;60.42;29.98;;;205.00;2073.60;;;;;;5039346;28;20112;-78
2020/12/20 11:12:04;;;;;;;56.28;32.22;;;205.20;2073.60;;;;;;5038439;28;20025;-77
2020/12/20 11:14:32;;;;;;;45.97;30.50;;;205.10;2048.00;;;;;;5039327;28;20349;-77
2020/12/20 11:16:59;;;;;;;50.40;34.17;;;205.20;2073.60;;;;;;5039281;28;20037;-77
2020/12/20 11:19:25;;;;;;;49.58;32.03;;;205.20;2022.40;;;;;;5039084;28;20026;-77
2020/12/20 11:21:52;;;;;;;55.95;34.20;;;205.20;1996.80;;;;;;5020826;28;20296;-78
2020/12/20 11:24:18;;;;;;;51.40;32.05;;;205.20;2022.40;;;;;;5038767;28;20426;-76
2020/12/20 11:26:45;;;;;;;47.13;28.98;;;205.20;2022.40;;;;;;5039140;28;20414;-76
2020/12/20 11:29:12;;;;;;;49.92;31.70;;;205.20;2022.40;;;;;;5038919;28;20029;-77
2020/12/20 11:31:39;;;;;;;54.63;34.35;;;205.20;2022.40;;;;;;5021497;28;20083;-77
2020/12/20 11:34:06;;;;;;;51.08;32.95;;;205.20;2022.40;;;;;;5020858;28;20036;-78
2020/12/20 11:36:33;;;;;;;43.05;28.65;;;205.20;1996.80;;;;;;5038606;28;20072;-76
2020/12/20 11:38:59;;;;;;;48.85;30.70;;;205.20;1996.80;;;;;;5038657;28;20429;-76
2020/12/20 11:41:27;;;;;;;41.45;29.08;;;205.20;1996.80;;;;;;5038842;28;20423;-77
2020/12/20 11:43:54;;;;;;;37.03;25.15;;;205.20;1971.20;;;;;;5021108;28;20056;-75
2020/12/20 11:46:22;;;;;;;35.42;23.13;;;205.20;1971.20;;;;;;5038831;28;20061;-75
2020/12/20 11:48:48;;;;;;;35.35;22.17;;;205.20;1996.80;;;;;;5038473;28;20029;-76
2020/12/20 11:51:15;;;;;;;37.90;25.25;;;205.20;1945.60;;;;;;5020326;28;20457;-77
2020/12/20 11:53:41;;;;;;;35.67;23.88;;;205.20;1945.60;;;;;;5038250;28;20049;-77
2020/12/20 11:56:08;;;;;;;43.50;26.25;;;205.20;1971.20;;;;;;5038419;28;20037;-78
2020/12/20 11:58:34;;;;;;;44.58;27.90;;;205.30;1945.60;;;;;;5038465;28;20053;-78
2020/12/20 12:01:00;;;;;;;37.70;23.98;;;205.20;1945.60;;;;;;5038361;28;20029;-78
2020/12/20 12:03:26;;;;;;;113.90;68.88;;;205.20;1945.60;;;;;;5038125;28;20028;-78
2020/12/20 12:05:52;;;;;;;63.67;39.00;;;205.30;1971.20;;;;;;5038284;28;20029;-78